sensor_id;sensor_type;location;lat;lon;timestamp;P1;durP1;ratioP1;P2;durP2;ratioP2
211;SDS011;16228;48.800;9.002;2023-05-10T00:00:02;2.37;;;0.70;;
211;SDS011;16228;48.800;9.002;2023-05-10T00:02:30;2.93;;;0.93;;
211;SDS011;16228;48.800;9.002;2023-05-10T00:04:57;0.83;;;0.50;;
211;SDS011;16228;48.800;9.002;2023-05-10T00:07:24;0.50;;;0.50;;
211;SDS011;16228;48.800;9.002;2023-05-10T00:09:53;1.13;;;0.40;;
211;SDS011;16228;48.800;9.002;2023-05-10T00:12:20;0.50;;;0.50;;
211;SDS011;16228;48.800;9.002;2023-05-10T00:14:47;0.87;;;0.50;;
211;SDS011;16228;48.800;9.002;2023-05-10T00:17:24;1.37;;;0.40;;
211;SDS011;16228;48.800;9.002;2023-05-10T00:19:52;0.67;;;0.40;;
211;SDS011;16228;48.800;9.002;2023-05-10T00:22:19;0.77;;;0.50;;
211;SDS011;16228;48.800;9.002;2023-05-10T00:24:46;0.40;;;0.40;;
211;SDS011;16228;48.800;9.002;2023-05-10T00:27:15;1.70;;;0.50;;
211;SDS011;16228;48.800;9.002;2023-05-10T00:29:42;0.70;;;0.47;;
211;SDS011;16228;48.800;9.002;2023-05-10T00:32:09;1.33;;;0.50;;
211;SDS011;16228;48.800;9.002;2023-05-10T00:34:37;3.07;;;0.63;;
211;SDS011;16228;48.800;9.002;2023-05-10T00:37:04;1.30;;;0.60;;
211;SDS011;16228;48.800;9.002;2023-05-10T00:39:31;0.80;;;0.60;;
211;SDS011;16228;48.800;9.002;2023-05-10T00:41:58;0.73;;;0.40;;
211;SDS011;16228;48.800;9.002;2023-05-10T00:44:27;0.40;;;0.40;;
211;SDS011;16228;48.800;9.002;2023-05-10T00:46:54;0.60;;;0.60;;
211;SDS011;16228;48.800;9.002;2023-05-10T00:49:21;0.30;;;0.30;;
211;SDS011;16228;48.800;9.002;2023-05-10T00:51:49;0.50;;;0.50;;
211;SDS011;16228;48.800;9.002;2023-05-10T00:54:16;1.17;;;0.67;;
211;SDS011;16228;48.800;9.002;2023-05-10T00:56:44;1.63;;;0.63;;
211;SDS011;16228;48.800;9.002;2023-05-10T00:59:23;1.13;;;0.50;;
211;SDS011;16228;48.800;9.002;2023-05-10T01:01:52;4.43;;;0.70;;
211;SDS011;16228;48.800;9.002;2023-05-10T01:04:20;0.50;;;0.50;;
211;SDS011;16228;48.800;9.002;2023-05-10T01:06:51;0.60;;;0.60;;
211;SDS011;16228;48.800;9.002;2023-05-10T01:09:19;0.70;;;0.57;;
211;SDS011;16228;48.800;9.002;2023-05-10T01:11:47;1.47;;;0.70;;
211;SDS011;16228;48.800;9.002;2023-05-10T01:14:15;0.87;;;0.80;;
211;SDS011;16228;48.800;9.002;2023-05-10T01:16:46;1.53;;;0.80;;
211;SDS011;16228;48.800;9.002;2023-05-10T01:19:18;1.37;;;0.90;;
211;SDS011;16228;48.800;9.002;2023-05-10T01:21:50;0.60;;;0.60;;
211;SDS011;16228;48.800;9.002;2023-05-10T01:24:34;2.30;;;0.77;;
211;SDS011;16228;48.800;9.002;2023-05-10T01:33:43;2.73;;;0.93;;
211;SDS011;16228;48.800;9.002;2023-05-10T01:36:17;1.30;;;1.20;;
211;SDS011;16228;48.800;9.002;2023-05-10T01:38:52;0.80;;;0.70;;
211;SDS011;16228;48.800;9.002;2023-05-10T01:41:24;0.83;;;0.83;;
211;SDS011;16228;48.800;9.002;2023-05-10T01:43:57;1.90;;;1.03;;
211;SDS011;16228;48.800;9.002;2023-05-10T01:46:31;0.70;;;0.70;;
211;SDS011;16228;48.800;9.002;2023-05-10T01:49:03;0.97;;;0.80;;
211;SDS011;16228;48.800;9.002;2023-05-10T01:51:36;0.90;;;0.90;;
211;SDS011;16228;48.800;9.002;2023-05-10T01:54:06;0.67;;;0.67;;
211;SDS011;16228;48.800;9.002;2023-05-10T01:56:36;1.60;;;0.80;;
211;SDS011;16228;48.800;9.002;2023-05-10T01:59:12;0.70;;;0.70;;
211;SDS011;16228;48.800;9.002;2023-05-10T02:01:43;0.90;;;0.90;;
211;SDS011;16228;48.800;9.002;2023-05-10T02:04:15;0.93;;;0.90;;
211;SDS011;16228;48.800;9.002;2023-05-10T02:06:43;0.80;;;0.80;;
211;SDS011;16228;48.800;9.002;2023-05-10T02:09:13;2.10;;;0.80;;
211;SDS011;16228;48.800;9.002;2023-05-10T02:11:42;2.00;;;0.70;;
211;SDS011;16228;48.800;9.002;2023-05-10T02:14:11;0.97;;;0.80;;
211;SDS011;16228;48.800;9.002;2023-05-10T02:16:38;0.90;;;0.90;;
211;SDS011;16228;48.800;9.002;2023-05-10T02:19:06;2.40;;;0.80;;
211;SDS011;16228;48.800;9.002;2023-05-10T02:21:36;1.17;;;0.80;;
211;SDS011;16228;48.800;9.002;2023-05-10T02:24:05;3.13;;;1.00;;
211;SDS011;16228;48.800;9.002;2023-05-10T02:26:34;0.80;;;0.80;;
211;SDS011;16228;48.800;9.002;2023-05-10T02:29:04;1.43;;;0.90;;
211;SDS011;16228;48.800;9.002;2023-05-10T02:31:33;2.73;;;0.80;;
211;SDS011;16228;48.800;9.002;2023-05-10T02:34:01;1.53;;;0.90;;
211;SDS011;16228;48.800;9.002;2023-05-10T02:36:30;1.57;;;0.80;;
211;SDS011;16228;48.800;9.002;2023-05-10T02:38:59;1.23;;;1.13;;
211;SDS011;16228;48.800;9.002;2023-05-10T02:41:48;1.30;;;0.70;;
211;SDS011;16228;48.800;9.002;2023-05-10T02:44:35;1.10;;;0.77;;
211;SDS011;16228;48.800;9.002;2023-05-10T02:47:21;2.67;;;1.17;;
211;SDS011;16228;48.800;9.002;2023-05-10T02:49:59;2.10;;;0.80;;
211;SDS011;16228;48.800;9.002;2023-05-10T02:52:46;0.83;;;0.73;;
211;SDS011;16228;48.800;9.002;2023-05-10T02:55:37;1.10;;;0.97;;
211;SDS011;16228;48.800;9.002;2023-05-10T02:58:25;1.03;;;1.03;;
211;SDS011;16228;48.800;9.002;2023-05-10T03:01:10;1.43;;;1.33;;
211;SDS011;16228;48.800;9.002;2023-05-10T03:03:56;1.10;;;1.00;;
211;SDS011;16228;48.800;9.002;2023-05-10T03:06:42;1.63;;;1.20;;
211;SDS011;16228;48.800;9.002;2023-05-10T03:09:28;2.30;;;1.87;;
211;SDS011;16228;48.800;9.002;2023-05-10T03:12:18;2.17;;;1.67;;
211;SDS011;16228;48.800;9.002;2023-05-10T03:15:11;1.50;;;1.40;;
211;SDS011;16228;48.800;9.002;2023-05-10T03:18:10;1.73;;;1.30;;
211;SDS011;16228;48.800;9.002;2023-05-10T03:21:02;2.67;;;1.80;;
211;SDS011;16228;48.800;9.002;2023-05-10T03:23:50;1.33;;;1.23;;
211;SDS011;16228;48.800;9.002;2023-05-10T03:26:41;3.60;;;1.90;;
211;SDS011;16228;48.800;9.002;2023-05-10T03:29:35;1.90;;;1.80;;
211;SDS011;16228;48.800;9.002;2023-05-10T03:32:03;2.10;;;1.90;;
211;SDS011;16228;48.800;9.002;2023-05-10T03:34:31;2.30;;;1.80;;
211;SDS011;16228;48.800;9.002;2023-05-10T03:36:58;2.13;;;1.33;;
211;SDS011;16228;48.800;9.002;2023-05-10T03:39:25;2.63;;;1.70;;
211;SDS011;16228;48.800;9.002;2023-05-10T03:41:52;2.30;;;1.80;;
211;SDS011;16228;48.800;9.002;2023-05-10T03:44:20;1.73;;;1.63;;
211;SDS011;16228;48.800;9.002;2023-05-10T03:46:48;1.90;;;1.20;;
211;SDS011;16228;48.800;9.002;2023-05-10T03:49:15;2.37;;;2.27;;
211;SDS011;16228;48.800;9.002;2023-05-10T03:51:43;2.43;;;2.00;;
211;SDS011;16228;48.800;9.002;2023-05-10T03:54:10;3.93;;;1.50;;
211;SDS011;16228;48.800;9.002;2023-05-10T03:56:37;1.30;;;1.20;;
211;SDS011;16228;48.800;9.002;2023-05-10T03:59:04;2.23;;;2.00;;
211;SDS011;16228;48.800;9.002;2023-05-10T04:01:32;2.77;;;1.43;;
211;SDS011;16228;48.800;9.002;2023-05-10T04:04:01;1.90;;;1.70;;
211;SDS011;16228;48.800;9.002;2023-05-10T04:06:28;2.87;;;1.80;;
211;SDS011;16228;48.800;9.002;2023-05-10T04:08:56;1.30;;;1.20;;
211;SDS011;16228;48.800;9.002;2023-05-10T04:11:25;2.77;;;2.30;;
211;SDS011;16228;48.800;9.002;2023-05-10T04:13:53;2.67;;;1.97;;
211;SDS011;16228;48.800;9.002;2023-05-10T04:16:20;2.60;;;2.17;;
211;SDS011;16228;48.800;9.002;2023-05-10T04:18:47;1.40;;;1.30;;
211;SDS011;16228;48.800;9.002;2023-05-10T04:21:15;3.70;;;1.20;;
211;SDS011;16228;48.800;9.002;2023-05-10T04:23:43;1.90;;;1.80;;
211;SDS011;16228;48.800;9.002;2023-05-10T04:26:10;2.63;;;2.17;;
211;SDS011;16228;48.800;9.002;2023-05-10T04:28:37;5.57;;;2.33;;
211;SDS011;16228;48.800;9.002;2023-05-10T04:31:04;1.90;;;1.80;;
211;SDS011;16228;48.800;9.002;2023-05-10T04:33:32;2.03;;;1.50;;
211;SDS011;16228;48.800;9.002;2023-05-10T04:36:00;1.70;;;1.60;;
211;SDS011;16228;48.800;9.002;2023-05-10T04:38:29;2.40;;;2.20;;
211;SDS011;16228;48.800;9.002;2023-05-10T04:41:03;1.63;;;1.53;;
211;SDS011;16228;48.800;9.002;2023-05-10T04:43:31;1.67;;;1.57;;
211;SDS011;16228;48.800;9.002;2023-05-10T04:45:58;3.00;;;1.63;;
211;SDS011;16228;48.800;9.002;2023-05-10T04:48:26;5.03;;;2.50;;
211;SDS011;16228;48.800;9.002;2023-05-10T04:50:53;4.40;;;2.00;;
211;SDS011;16228;48.800;9.002;2023-05-10T04:53:20;2.77;;;1.80;;
211;SDS011;16228;48.800;9.002;2023-05-10T04:55:48;2.70;;;1.40;;
211;SDS011;16228;48.800;9.002;2023-05-10T04:58:16;2.00;;;1.50;;
211;SDS011;16228;48.800;9.002;2023-05-10T05:00:43;1.10;;;1.00;;
211;SDS011;16228;48.800;9.002;2023-05-10T05:03:10;1.77;;;1.50;;
211;SDS011;16228;48.800;9.002;2023-05-10T05:05:37;1.83;;;1.70;;
211;SDS011;16228;48.800;9.002;2023-05-10T05:08:04;2.00;;;1.80;;
211;SDS011;16228;48.800;9.002;2023-05-10T05:10:32;1.43;;;1.33;;
211;SDS011;16228;48.800;9.002;2023-05-10T05:13:00;4.50;;;2.30;;
211;SDS011;16228;48.800;9.002;2023-05-10T05:15:27;5.50;;;2.50;;
211;SDS011;16228;48.800;9.002;2023-05-10T05:17:55;2.20;;;2.00;;
211;SDS011;16228;48.800;9.002;2023-05-10T05:20:23;2.00;;;1.70;;
211;SDS011;16228;48.800;9.002;2023-05-10T05:22:50;3.90;;;2.67;;
211;SDS011;16228;48.800;9.002;2023-05-10T05:25:17;2.20;;;2.00;;
211;SDS011;16228;48.800;9.002;2023-05-10T05:27:44;3.20;;;1.80;;
211;SDS011;16228;48.800;9.002;2023-05-10T05:30:13;2.60;;;2.10;;
211;SDS011;16228;48.800;9.002;2023-05-10T05:32:40;2.20;;;2.10;;
211;SDS011;16228;48.800;9.002;2023-05-10T05:35:07;3.00;;;1.60;;
211;SDS011;16228;48.800;9.002;2023-05-10T05:37:35;3.40;;;2.10;;
211;SDS011;16228;48.800;9.002;2023-05-10T05:40:02;2.50;;;2.27;;
211;SDS011;16228;48.800;9.002;2023-05-10T05:42:30;2.00;;;1.47;;
211;SDS011;16228;48.800;9.002;2023-05-10T05:44:58;3.17;;;1.97;;
211;SDS011;16228;48.800;9.002;2023-05-10T05:47:26;3.03;;;1.67;;
211;SDS011;16228;48.800;9.002;2023-05-10T05:49:53;1.37;;;1.37;;
211;SDS011;16228;48.800;9.002;2023-05-10T05:52:20;4.73;;;2.17;;
211;SDS011;16228;48.800;9.002;2023-05-10T05:54:48;5.80;;;2.43;;
211;SDS011;16228;48.800;9.002;2023-05-10T05:57:15;5.73;;;1.90;;
211;SDS011;16228;48.800;9.002;2023-05-10T05:59:42;5.13;;;1.80;;
211;SDS011;16228;48.800;9.002;2023-05-10T06:02:09;2.87;;;1.33;;
211;SDS011;16228;48.800;9.002;2023-05-10T06:04:38;2.70;;;1.57;;
211;SDS011;16228;48.800;9.002;2023-05-10T06:07:05;3.23;;;2.47;;
211;SDS011;16228;48.800;9.002;2023-05-10T06:09:33;1.47;;;1.37;;
211;SDS011;16228;48.800;9.002;2023-05-10T06:12:00;2.60;;;1.47;;
211;SDS011;16228;48.800;9.002;2023-05-10T06:14:27;2.93;;;1.63;;
211;SDS011;16228;48.800;9.002;2023-05-10T06:16:54;1.70;;;1.60;;
211;SDS011;16228;48.800;9.002;2023-05-10T06:19:22;1.40;;;1.10;;
211;SDS011;16228;48.800;9.002;2023-05-10T06:21:50;2.57;;;1.33;;
211;SDS011;16228;48.800;9.002;2023-05-10T06:24:17;4.00;;;2.40;;
211;SDS011;16228;48.800;9.002;2023-05-10T06:26:45;4.70;;;1.70;;
211;SDS011;16228;48.800;9.002;2023-05-10T06:29:12;2.03;;;1.70;;
211;SDS011;16228;48.800;9.002;2023-05-10T06:31:40;2.80;;;1.77;;
211;SDS011;16228;48.800;9.002;2023-05-10T06:34:07;1.60;;;1.50;;
211;SDS011;16228;48.800;9.002;2023-05-10T06:36:34;2.50;;;1.67;;
211;SDS011;16228;48.800;9.002;2023-05-10T06:39:03;1.50;;;1.40;;
211;SDS011;16228;48.800;9.002;2023-05-10T06:41:30;4.27;;;2.10;;
211;SDS011;16228;48.800;9.002;2023-05-10T06:43:58;1.63;;;1.53;;
211;SDS011;16228;48.800;9.002;2023-05-10T06:46:25;1.47;;;1.37;;
211;SDS011;16228;48.800;9.002;2023-05-10T06:48:52;3.40;;;1.53;;
211;SDS011;16228;48.800;9.002;2023-05-10T06:51:19;1.50;;;1.40;;
211;SDS011;16228;48.800;9.002;2023-05-10T06:53:48;1.40;;;1.30;;
211;SDS011;16228;48.800;9.002;2023-05-10T06:56:17;5.63;;;1.60;;
211;SDS011;16228;48.800;9.002;2023-05-10T06:58:49;1.87;;;1.17;;
211;SDS011;16228;48.800;9.002;2023-05-10T07:01:16;2.80;;;1.10;;
211;SDS011;16228;48.800;9.002;2023-05-10T07:03:43;1.80;;;1.10;;
211;SDS011;16228;48.800;9.002;2023-05-10T07:06:11;2.67;;;1.20;;
211;SDS011;16228;48.800;9.002;2023-05-10T07:08:38;1.47;;;1.10;;
211;SDS011;16228;48.800;9.002;2023-05-10T07:11:05;1.93;;;1.50;;
211;SDS011;16228;48.800;9.002;2023-05-10T07:13:34;1.30;;;1.27;;
211;SDS011;16228;48.800;9.002;2023-05-10T07:16:04;2.40;;;1.17;;
211;SDS011;16228;48.800;9.002;2023-05-10T07:18:32;2.80;;;1.60;;
211;SDS011;16228;48.800;9.002;2023-05-10T07:21:00;1.80;;;1.40;;
211;SDS011;16228;48.800;9.002;2023-05-10T07:23:28;2.43;;;1.57;;
211;SDS011;16228;48.800;9.002;2023-05-10T07:25:55;2.07;;;1.10;;
211;SDS011;16228;48.800;9.002;2023-05-10T07:28:23;1.80;;;1.20;;
211;SDS011;16228;48.800;9.002;2023-05-10T07:30:52;2.07;;;1.03;;
211;SDS011;16228;48.800;9.002;2023-05-10T07:33:20;2.30;;;1.43;;
211;SDS011;16228;48.800;9.002;2023-05-10T07:35:47;5.07;;;1.00;;
211;SDS011;16228;48.800;9.002;2023-05-10T07:38:14;3.70;;;1.20;;
211;SDS011;16228;48.800;9.002;2023-05-10T07:40:50;1.30;;;1.13;;
211;SDS011;16228;48.800;9.002;2023-05-10T07:43:18;2.13;;;1.13;;
211;SDS011;16228;48.800;9.002;2023-05-10T07:45:46;1.43;;;1.00;;
211;SDS011;16228;48.800;9.002;2023-05-10T07:48:18;1.83;;;1.07;;
211;SDS011;16228;48.800;9.002;2023-05-10T07:50:45;1.00;;;0.90;;
211;SDS011;16228;48.800;9.002;2023-05-10T07:53:12;0.87;;;0.80;;
211;SDS011;16228;48.800;9.002;2023-05-10T07:55:39;0.87;;;0.70;;
211;SDS011;16228;48.800;9.002;2023-05-10T07:58:06;1.47;;;0.77;;
211;SDS011;16228;48.800;9.002;2023-05-10T08:00:34;2.23;;;0.90;;
211;SDS011;16228;48.800;9.002;2023-05-10T08:03:04;0.60;;;0.60;;
211;SDS011;16228;48.800;9.002;2023-05-10T08:05:33;2.17;;;0.73;;
211;SDS011;16228;48.800;9.002;2023-05-10T08:08:00;0.70;;;0.70;;
211;SDS011;16228;48.800;9.002;2023-05-10T08:10:27;2.27;;;0.80;;
211;SDS011;16228;48.800;9.002;2023-05-10T08:12:55;0.60;;;0.60;;
211;SDS011;16228;48.800;9.002;2023-05-10T08:15:23;0.67;;;0.50;;
211;SDS011;16228;48.800;9.002;2023-05-10T08:17:51;1.80;;;0.63;;
211;SDS011;16228;48.800;9.002;2023-05-10T08:20:18;1.40;;;0.90;;
211;SDS011;16228;48.800;9.002;2023-05-10T08:22:47;1.13;;;0.50;;
211;SDS011;16228;48.800;9.002;2023-05-10T08:25:15;1.13;;;0.53;;
211;SDS011;16228;48.800;9.002;2023-05-10T08:27:42;1.10;;;0.70;;
211;SDS011;16228;48.800;9.002;2023-05-10T08:30:10;2.47;;;0.50;;
211;SDS011;16228;48.800;9.002;2023-05-10T08:32:38;2.13;;;0.50;;
211;SDS011;16228;48.800;9.002;2023-05-10T08:35:05;0.50;;;0.50;;
211;SDS011;16228;48.800;9.002;2023-05-10T08:37:32;1.60;;;0.40;;
211;SDS011;16228;48.800;9.002;2023-05-10T08:40:01;1.63;;;0.67;;
211;SDS011;16228;48.800;9.002;2023-05-10T08:42:30;2.27;;;0.70;;
211;SDS011;16228;48.800;9.002;2023-05-10T08:45:01;0.80;;;0.50;;
211;SDS011;16228;48.800;9.002;2023-05-10T08:47:29;0.63;;;0.60;;
211;SDS011;16228;48.800;9.002;2023-05-10T08:49:57;0.53;;;0.40;;
211;SDS011;16228;48.800;9.002;2023-05-10T08:52:29;0.77;;;0.43;;
211;SDS011;16228;48.800;9.002;2023-05-10T08:54:58;0.60;;;0.50;;
211;SDS011;16228;48.800;9.002;2023-05-10T08:57:28;1.03;;;0.40;;
211;SDS011;16228;48.800;9.002;2023-05-10T08:59:56;1.23;;;0.40;;
211;SDS011;16228;48.800;9.002;2023-05-10T09:02:24;0.63;;;0.50;;
211;SDS011;16228;48.800;9.002;2023-05-10T09:04:52;2.57;;;0.53;;
211;SDS011;16228;48.800;9.002;2023-05-10T09:07:19;0.73;;;0.50;;
211;SDS011;16228;48.800;9.002;2023-05-10T09:09:47;0.50;;;0.50;;
211;SDS011;16228;48.800;9.002;2023-05-10T09:12:17;0.50;;;0.47;;
211;SDS011;16228;48.800;9.002;2023-05-10T09:14:44;0.60;;;0.53;;
211;SDS011;16228;48.800;9.002;2023-05-10T09:17:12;2.63;;;0.50;;
211;SDS011;16228;48.800;9.002;2023-05-10T09:19:40;0.43;;;0.43;;
211;SDS011;16228;48.800;9.002;2023-05-10T09:22:07;0.80;;;0.50;;
211;SDS011;16228;48.800;9.002;2023-05-10T09:24:36;0.40;;;0.40;;
211;SDS011;16228;48.800;9.002;2023-05-10T09:27:07;0.70;;;0.57;;
211;SDS011;16228;48.800;9.002;2023-05-10T09:29:42;0.43;;;0.43;;
211;SDS011;16228;48.800;9.002;2023-05-10T09:32:10;0.60;;;0.50;;
211;SDS011;16228;48.800;9.002;2023-05-10T09:34:37;1.37;;;1.20;;
211;SDS011;16228;48.800;9.002;2023-05-10T09:37:05;0.57;;;0.43;;
211;SDS011;16228;48.800;9.002;2023-05-10T09:39:33;3.20;;;1.27;;
211;SDS011;16228;48.800;9.002;2023-05-10T09:42:02;1.37;;;0.43;;
211;SDS011;16228;48.800;9.002;2023-05-10T09:44:33;1.67;;;0.60;;
211;SDS011;16228;48.800;9.002;2023-05-10T09:47:02;1.87;;;0.53;;
211;SDS011;16228;48.800;9.002;2023-05-10T09:49:30;0.40;;;0.40;;
211;SDS011;16228;48.800;9.002;2023-05-10T09:52:02;1.30;;;0.50;;
211;SDS011;16228;48.800;9.002;2023-05-10T09:54:31;0.50;;;0.50;;
211;SDS011;16228;48.800;9.002;2023-05-10T09:56:58;0.47;;;0.47;;
211;SDS011;16228;48.800;9.002;2023-05-10T09:59:26;0.83;;;0.53;;
211;SDS011;16228;48.800;9.002;2023-05-10T10:01:55;0.90;;;0.60;;
211;SDS011;16228;48.800;9.002;2023-05-10T10:04:25;1.40;;;0.60;;
211;SDS011;16228;48.800;9.002;2023-05-10T10:06:59;1.80;;;0.80;;
211;SDS011;16228;48.800;9.002;2023-05-10T10:09:28;0.43;;;0.43;;
211;SDS011;16228;48.800;9.002;2023-05-10T10:11:55;0.73;;;0.50;;
211;SDS011;16228;48.800;9.002;2023-05-10T10:14:22;1.87;;;0.80;;
211;SDS011;16228;48.800;9.002;2023-05-10T10:16:50;0.87;;;0.80;;
211;SDS011;16228;48.800;9.002;2023-05-10T10:19:17;0.83;;;0.50;;
211;SDS011;16228;48.800;9.002;2023-05-10T10:21:47;1.07;;;0.40;;
211;SDS011;16228;48.800;9.002;2023-05-10T10:24:14;0.43;;;0.43;;
211;SDS011;16228;48.800;9.002;2023-05-10T10:26:41;1.07;;;0.60;;
211;SDS011;16228;48.800;9.002;2023-05-10T10:29:12;1.83;;;0.57;;
211;SDS011;16228;48.800;9.002;2023-05-10T10:31:48;0.63;;;0.50;;
211;SDS011;16228;48.800;9.002;2023-05-10T10:34:25;2.27;;;0.47;;
211;SDS011;16228;48.800;9.002;2023-05-10T10:36:55;3.23;;;0.63;;
211;SDS011;16228;48.800;9.002;2023-05-10T10:39:23;0.73;;;0.73;;
211;SDS011;16228;48.800;9.002;2023-05-10T10:41:51;0.50;;;0.50;;
211;SDS011;16228;48.800;9.002;2023-05-10T10:44:23;1.33;;;0.63;;
211;SDS011;16228;48.800;9.002;2023-05-10T10:47:02;1.60;;;0.80;;
211;SDS011;16228;48.800;9.002;2023-05-10T10:49:37;1.90;;;0.67;;
211;SDS011;16228;48.800;9.002;2023-05-10T10:52:25;0.50;;;0.50;;
211;SDS011;16228;48.800;9.002;2023-05-10T10:54:59;2.40;;;0.60;;
211;SDS011;16228;48.800;9.002;2023-05-10T10:57:28;0.80;;;0.60;;
211;SDS011;16228;48.800;9.002;2023-05-10T11:02:50;3.33;;;0.60;;
211;SDS011;16228;48.800;9.002;2023-05-10T11:08:13;1.43;;;0.90;;
211;SDS011;16228;48.800;9.002;2023-05-10T11:10:49;0.87;;;0.67;;
211;SDS011;16228;48.800;9.002;2023-05-10T11:13:29;1.70;;;0.50;;
211;SDS011;16228;48.800;9.002;2023-05-10T11:15:57;4.60;;;0.73;;
211;SDS011;16228;48.800;9.002;2023-05-10T11:18:28;3.40;;;1.23;;
211;SDS011;16228;48.800;9.002;2023-05-10T11:20:57;1.40;;;0.60;;
211;SDS011;16228;48.800;9.002;2023-05-10T11:23:32;0.53;;;0.53;;
211;SDS011;16228;48.800;9.002;2023-05-10T11:26:14;2.27;;;0.60;;
211;SDS011;16228;48.800;9.002;2023-05-10T11:28:42;1.37;;;0.60;;
211;SDS011;16228;48.800;9.002;2023-05-10T11:31:09;1.50;;;0.70;;
211;SDS011;16228;48.800;9.002;2023-05-10T11:33:42;1.43;;;0.70;;
211;SDS011;16228;48.800;9.002;2023-05-10T11:36:10;1.90;;;0.60;;
211;SDS011;16228;48.800;9.002;2023-05-10T11:38:39;1.23;;;0.70;;
211;SDS011;16228;48.800;9.002;2023-05-10T11:41:07;1.63;;;0.80;;
211;SDS011;16228;48.800;9.002;2023-05-10T11:43:38;2.53;;;0.80;;
211;SDS011;16228;48.800;9.002;2023-05-10T11:46:06;1.90;;;0.67;;
211;SDS011;16228;48.800;9.002;2023-05-10T11:48:34;1.07;;;0.80;;
211;SDS011;16228;48.800;9.002;2023-05-10T11:51:01;0.93;;;0.57;;
211;SDS011;16228;48.800;9.002;2023-05-10T11:53:29;0.80;;;0.70;;
211;SDS011;16228;48.800;9.002;2023-05-10T11:56:03;1.47;;;0.70;;
211;SDS011;16228;48.800;9.002;2023-05-10T11:58:31;1.27;;;0.70;;
211;SDS011;16228;48.800;9.002;2023-05-10T12:01:00;0.80;;;0.80;;
211;SDS011;16228;48.800;9.002;2023-05-10T12:03:27;2.03;;;0.80;;
211;SDS011;16228;48.800;9.002;2023-05-10T12:05:55;2.13;;;0.80;;
211;SDS011;16228;48.800;9.002;2023-05-10T12:08:24;1.60;;;0.50;;
211;SDS011;16228;48.800;9.002;2023-05-10T12:10:53;1.47;;;0.80;;
211;SDS011;16228;48.800;9.002;2023-05-10T12:13:31;2.03;;;0.50;;
211;SDS011;16228;48.800;9.002;2023-05-10T12:15:58;0.90;;;0.67;;
211;SDS011;16228;48.800;9.002;2023-05-10T12:18:26;2.53;;;0.73;;
211;SDS011;16228;48.800;9.002;2023-05-10T12:20:53;2.83;;;0.70;;
211;SDS011;16228;48.800;9.002;2023-05-10T12:23:20;2.67;;;0.60;;
211;SDS011;16228;48.800;9.002;2023-05-10T12:25:47;0.57;;;0.57;;
211;SDS011;16228;48.800;9.002;2023-05-10T12:28:15;1.60;;;0.77;;
211;SDS011;16228;48.800;9.002;2023-05-10T12:30:47;1.93;;;1.17;;
211;SDS011;16228;48.800;9.002;2023-05-10T12:33:14;1.13;;;0.70;;
211;SDS011;16228;48.800;9.002;2023-05-10T12:35:44;2.03;;;0.60;;
211;SDS011;16228;48.800;9.002;2023-05-10T12:38:28;1.37;;;0.70;;
211;SDS011;16228;48.800;9.002;2023-05-10T12:40:58;2.77;;;0.80;;
211;SDS011;16228;48.800;9.002;2023-05-10T12:43:31;1.80;;;1.60;;
211;SDS011;16228;48.800;9.002;2023-05-10T12:46:05;3.90;;;0.87;;
211;SDS011;16228;48.800;9.002;2023-05-10T12:48:33;1.30;;;0.70;;
211;SDS011;16228;48.800;9.002;2023-05-10T12:51:01;1.00;;;0.70;;
211;SDS011;16228;48.800;9.002;2023-05-10T12:53:29;1.37;;;0.60;;
211;SDS011;16228;48.800;9.002;2023-05-10T12:55:57;2.03;;;0.60;;
211;SDS011;16228;48.800;9.002;2023-05-10T12:58:26;2.57;;;0.70;;
211;SDS011;16228;48.800;9.002;2023-05-10T13:00:54;2.17;;;0.60;;
211;SDS011;16228;48.800;9.002;2023-05-10T13:03:23;0.83;;;0.50;;
211;SDS011;16228;48.800;9.002;2023-05-10T13:05:51;2.13;;;0.60;;
211;SDS011;16228;48.800;9.002;2023-05-10T13:08:18;1.50;;;0.60;;
211;SDS011;16228;48.800;9.002;2023-05-10T13:10:45;2.90;;;0.70;;
211;SDS011;16228;48.800;9.002;2023-05-10T13:13:13;1.07;;;0.60;;
211;SDS011;16228;48.800;9.002;2023-05-10T13:15:40;2.77;;;0.70;;
211;SDS011;16228;48.800;9.002;2023-05-10T13:18:07;1.07;;;0.70;;
211;SDS011;16228;48.800;9.002;2023-05-10T13:20:36;2.30;;;0.60;;
211;SDS011;16228;48.800;9.002;2023-05-10T13:23:04;2.40;;;0.70;;
211;SDS011;16228;48.800;9.002;2023-05-10T13:25:32;1.90;;;1.00;;
211;SDS011;16228;48.800;9.002;2023-05-10T13:28:00;0.80;;;0.60;;
211;SDS011;16228;48.800;9.002;2023-05-10T13:30:28;0.70;;;0.63;;
211;SDS011;16228;48.800;9.002;2023-05-10T13:32:55;0.70;;;0.60;;
211;SDS011;16228;48.800;9.002;2023-05-10T13:35:23;1.23;;;0.43;;
211;SDS011;16228;48.800;9.002;2023-05-10T13:38:09;1.90;;;0.63;;
211;SDS011;16228;48.800;9.002;2023-05-10T13:40:37;3.63;;;0.70;;
211;SDS011;16228;48.800;9.002;2023-05-10T13:43:06;1.33;;;0.50;;
211;SDS011;16228;48.800;9.002;2023-05-10T13:45:33;0.77;;;0.60;;
211;SDS011;16228;48.800;9.002;2023-05-10T13:48:01;1.83;;;0.60;;
211;SDS011;16228;48.800;9.002;2023-05-10T13:50:29;1.23;;;0.80;;
211;SDS011;16228;48.800;9.002;2023-05-10T13:52:57;1.60;;;0.60;;
211;SDS011;16228;48.800;9.002;2023-05-10T13:55:27;1.47;;;0.70;;
211;SDS011;16228;48.800;9.002;2023-05-10T13:57:55;2.53;;;0.83;;
211;SDS011;16228;48.800;9.002;2023-05-10T14:00:22;0.50;;;0.50;;
211;SDS011;16228;48.800;9.002;2023-05-10T14:02:50;1.00;;;0.60;;
211;SDS011;16228;48.800;9.002;2023-05-10T14:05:18;1.43;;;0.60;;
211;SDS011;16228;48.800;9.002;2023-05-10T14:07:47;4.77;;;0.80;;
211;SDS011;16228;48.800;9.002;2023-05-10T14:10:14;1.30;;;0.60;;
211;SDS011;16228;48.800;9.002;2023-05-10T14:12:43;1.60;;;0.60;;
211;SDS011;16228;48.800;9.002;2023-05-10T14:15:11;3.70;;;0.77;;
211;SDS011;16228;48.800;9.002;2023-05-10T14:17:39;1.80;;;1.00;;
211;SDS011;16228;48.800;9.002;2023-05-10T14:20:26;2.43;;;0.40;;
211;SDS011;16228;48.800;9.002;2023-05-10T14:22:59;0.87;;;0.60;;
211;SDS011;16228;48.800;9.002;2023-05-10T14:25:46;1.60;;;0.40;;
211;SDS011;16228;48.800;9.002;2023-05-10T14:28:17;2.80;;;0.80;;
211;SDS011;16228;48.800;9.002;2023-05-10T14:30:49;1.73;;;0.70;;
211;SDS011;16228;48.800;9.002;2023-05-10T14:33:18;3.13;;;0.60;;
211;SDS011;16228;48.800;9.002;2023-05-10T14:35:49;0.43;;;0.40;;
211;SDS011;16228;48.800;9.002;2023-05-10T14:38:18;1.73;;;0.70;;
211;SDS011;16228;48.800;9.002;2023-05-10T14:40:46;1.77;;;0.70;;
211;SDS011;16228;48.800;9.002;2023-05-10T14:43:13;1.13;;;0.57;;
211;SDS011;16228;48.800;9.002;2023-05-10T14:45:42;1.20;;;0.70;;
211;SDS011;16228;48.800;9.002;2023-05-10T14:48:11;0.83;;;0.60;;
211;SDS011;16228;48.800;9.002;2023-05-10T14:50:45;2.40;;;0.60;;
211;SDS011;16228;48.800;9.002;2023-05-10T14:53:13;0.90;;;0.70;;
211;SDS011;16228;48.800;9.002;2023-05-10T14:55:42;2.83;;;0.73;;
211;SDS011;16228;48.800;9.002;2023-05-10T14:58:10;0.53;;;0.53;;
211;SDS011;16228;48.800;9.002;2023-05-10T15:00:38;3.07;;;0.70;;
211;SDS011;16228;48.800;9.002;2023-05-10T15:03:07;1.00;;;0.50;;
211;SDS011;16228;48.800;9.002;2023-05-10T15:05:35;0.90;;;0.50;;
211;SDS011;16228;48.800;9.002;2023-05-10T15:08:04;3.13;;;1.10;;
211;SDS011;16228;48.800;9.002;2023-05-10T15:10:32;0.70;;;0.50;;
211;SDS011;16228;48.800;9.002;2023-05-10T15:13:00;1.40;;;0.50;;
211;SDS011;16228;48.800;9.002;2023-05-10T15:15:28;0.70;;;0.50;;
211;SDS011;16228;48.800;9.002;2023-05-10T15:17:55;0.70;;;0.50;;
211;SDS011;16228;48.800;9.002;2023-05-10T15:20:24;0.87;;;0.40;;
211;SDS011;16228;48.800;9.002;2023-05-10T15:22:51;1.10;;;0.47;;
211;SDS011;16228;48.800;9.002;2023-05-10T15:25:18;1.33;;;0.50;;
211;SDS011;16228;48.800;9.002;2023-05-10T15:27:46;3.13;;;0.53;;
211;SDS011;16228;48.800;9.002;2023-05-10T15:30:13;0.50;;;0.40;;
211;SDS011;16228;48.800;9.002;2023-05-10T15:32:40;1.17;;;0.53;;
211;SDS011;16228;48.800;9.002;2023-05-10T15:35:08;1.43;;;0.50;;
211;SDS011;16228;48.800;9.002;2023-05-10T15:37:37;1.90;;;0.50;;
211;SDS011;16228;48.800;9.002;2023-05-10T15:40:04;1.13;;;0.60;;
211;SDS011;16228;48.800;9.002;2023-05-10T15:42:35;1.03;;;0.60;;